sensor_id;sensor_type;location;lat;lon;timestamp;pressure;altitude;pressure_sealevel;temperature;humidity
53671;BME280;39571;48.612;8.088;2023-02-12T08:46:22;101880.03;;;3.11;100.00
53671;BME280;39571;48.612;8.088;2023-02-12T08:48:51;101882.31;;;3.39;100.00
53671;BME280;39571;48.612;8.088;2023-02-12T09:01:44;101874.75;;;5.94;100.00
53671;BME280;39571;48.612;8.088;2023-02-12T09:04:15;101864.59;;;6.94;100.00
53671;BME280;39571;48.612;8.088;2023-02-12T09:06:42;101871.47;;;7.96;100.00
53671;BME280;39571;48.612;8.088;2023-02-12T09:09:07;101861.94;;;8.84;100.00
53671;BME280;39571;48.612;8.088;2023-02-12T09:19:12;101872.94;;;11.40;100.00
53671;BME280;39571;48.612;8.088;2023-02-12T09:21:38;101866.06;;;12.01;100.00
53671;BME280;39571;48.612;8.088;2023-02-12T09:24:03;101867.53;;;12.45;100.00
53671;BME280;39571;48.612;8.088;2023-02-12T09:26:29;101858.28;;;12.76;100.00
53671;BME280;39571;48.612;8.088;2023-02-12T09:28:54;101860.72;;;13.42;100.00
53671;BME280;39571;48.612;8.088;2023-02-12T09:37:26;101856.00;;;14.18;100.00
53671;BME280;39571;48.612;8.088;2023-02-12T09:39:51;101857.06;;;14.44;100.00
53671;BME280;39571;48.612;8.088;2023-02-12T09:45:19;101859.91;;;15.12;100.00
53671;BME280;39571;48.612;8.088;2023-02-12T09:50:44;101861.66;;;15.12;97.17
53671;BME280;39571;48.612;8.088;2023-02-12T09:53:15;101859.03;;;15.15;92.80
53671;BME280;39571;48.612;8.088;2023-02-12T09:55:41;101870.47;;;15.32;90.44
53671;BME280;39571;48.612;8.088;2023-02-12T09:58:13;101859.88;;;15.02;89.02
53671;BME280;39571;48.612;8.088;2023-02-12T10:00:40;101868.69;;;15.16;88.80
53671;BME280;39571;48.612;8.088;2023-02-12T10:03:14;101859.88;;;15.14;87.16
53671;BME280;39571;48.612;8.088;2023-02-12T10:05:50;101860.78;;;15.19;88.48
53671;BME280;39571;48.612;8.088;2023-02-12T10:11:19;101859.59;;;14.32;92.82
53671;BME280;39571;48.612;8.088;2023-02-12T10:17:16;101854.16;;;13.99;100.00
53671;BME280;39571;48.612;8.088;2023-02-12T10:22:41;101848.50;;;13.44;100.00
53671;BME280;39571;48.612;8.088;2023-02-12T10:27:52;101845.56;;;14.30;100.00
53671;BME280;39571;48.612;8.088;2023-02-12T10:30:25;101847.44;;;14.55;99.40
53671;BME280;39571;48.612;8.088;2023-02-12T10:32:58;101849.25;;;14.73;97.33
53671;BME280;39571;48.612;8.088;2023-02-12T10:35:24;101848.44;;;15.01;91.15
53671;BME280;39571;48.612;8.088;2023-02-12T10:37:56;101844.09;;;15.29;95.81
53671;BME280;39571;48.612;8.088;2023-02-12T10:40:29;101840.56;;;15.38;91.70
53671;BME280;39571;48.612;8.088;2023-02-12T10:42:57;101842.31;;;15.17;90.99
53671;BME280;39571;48.612;8.088;2023-02-12T10:45:35;101835.31;;;15.66;87.84
53671;BME280;39571;48.612;8.088;2023-02-12T10:48:12;101825.56;;;16.00;85.27
53671;BME280;39571;48.612;8.088;2023-02-12T10:50:45;101824.66;;;16.12;84.19
53671;BME280;39571;48.612;8.088;2023-02-12T10:53:28;101821.09;;;16.25;79.87
53671;BME280;39571;48.612;8.088;2023-02-12T10:58:38;101808.66;;;16.48;76.28
53671;BME280;39571;48.612;8.088;2023-02-12T11:01:04;101806.94;;;16.44;79.43
53671;BME280;39571;48.612;8.088;2023-02-12T11:03:37;101805.25;;;16.22;83.66
53671;BME280;39571;48.612;8.088;2023-02-12T11:06:19;101800.09;;;15.86;82.86
53671;BME280;39571;48.612;8.088;2023-02-12T11:08:45;101803.66;;;15.63;84.73
53671;BME280;39571;48.612;8.088;2023-02-12T11:13:43;101800.03;;;14.61;92.30
53671;BME280;39571;48.612;8.088;2023-02-12T11:16:11;101806.88;;;14.23;100.00
53671;BME280;39571;48.612;8.088;2023-02-12T11:18:37;101794.44;;;13.89;100.00
53671;BME280;39571;48.612;8.088;2023-02-12T11:21:08;101797.63;;;13.45;100.00
53671;BME280;39571;48.612;8.088;2023-02-12T11:23:38;101796.69;;;13.39;100.00
53671;BME280;39571;48.612;8.088;2023-02-12T11:28:58;101783.50;;;13.34;100.00
53671;BME280;39571;48.612;8.088;2023-02-12T11:31:32;101787.22;;;13.57;100.00
53671;BME280;39571;48.612;8.088;2023-02-12T11:36:32;101782.06;;;13.80;100.00
53671;BME280;39571;48.612;8.088;2023-02-12T11:38:59;101775.81;;;13.63;100.00
53671;BME280;39571;48.612;8.088;2023-02-12T11:41:32;101779.38;;;13.65;100.00
53671;BME280;39571;48.612;8.088;2023-02-12T11:43:59;101775.06;;;13.78;100.00
53671;BME280;39571;48.612;8.088;2023-02-12T11:46:26;101768.13;;;13.92;100.00
53671;BME280;39571;48.612;8.088;2023-02-12T11:48:54;101766.34;;;13.91;100.00
53671;BME280;39571;48.612;8.088;2023-02-12T11:51:25;101768.16;;;14.01;100.00
53671;BME280;39571;48.612;8.088;2023-02-12T11:53:56;101759.41;;;14.08;100.00
53671;BME280;39571;48.612;8.088;2023-02-12T11:56:22;101755.91;;;14.12;100.00
53671;BME280;39571;48.612;8.088;2023-02-12T11:58:48;101756.78;;;14.14;100.00
53671;BME280;39571;48.612;8.088;2023-02-12T12:04:05;101748.88;;;14.14;100.00
53671;BME280;39571;48.612;8.088;2023-02-12T12:07:04;101750.66;;;14.09;100.00
53671;BME280;39571;48.612;8.088;2023-02-12T12:09:56;101748.91;;;14.17;100.00
53671;BME280;39571;48.612;8.088;2023-02-12T12:12:37;101754.22;;;14.20;100.00
53671;BME280;39571;48.612;8.088;2023-02-12T12:15:16;101748.91;;;14.09;100.00
53671;BME280;39571;48.612;8.088;2023-02-12T12:18:22;101743.63;;;14.14;100.00
53671;BME280;39571;48.612;8.088;2023-02-12T12:21:18;101743.63;;;14.14;100.00
53671;BME280;39571;48.612;8.088;2023-02-12T12:23:57;101734.84;;;14.12;100.00
53671;BME280;39571;48.612;8.088;2023-02-12T12:26:26;101733.09;;;14.14;100.00
53671;BME280;39571;48.612;8.088;2023-02-12T12:29:23;101739.31;;;14.27;100.00
53671;BME280;39571;48.612;8.088;2023-02-12T12:31:55;101731.38;;;14.22;100.00
53671;BME280;39571;48.612;8.088;2023-02-12T12:34:23;101727.06;;;14.39;100.00
53671;BME280;39571;48.612;8.088;2023-02-12T12:37:01;101729.75;;;14.54;100.00
53671;BME280;39571;48.612;8.088;2023-02-12T12:39:58;101720.09;;;14.67;100.00
53671;BME280;39571;48.612;8.088;2023-02-12T12:45:49;101726.22;;;14.40;100.00
53671;BME280;39571;48.612;8.088;2023-02-12T12:56:53;101706.81;;;14.32;100.00
53671;BME280;39571;48.612;8.088;2023-02-12T13:10:33;101703.31;;;14.33;100.00
53671;BME280;39571;48.612;8.088;2023-02-12T13:13:30;101698.09;;;14.36;100.00
53671;BME280;39571;48.612;8.088;2023-02-12T13:16:05;101696.38;;;14.44;100.00
53671;BME280;39571;48.612;8.088;2023-02-12T13:26:28;101685.81;;;14.37;100.00
53671;BME280;39571;48.612;8.088;2023-02-12T13:29:00;101682.25;;;14.33;100.00
53671;BME280;39571;48.612;8.088;2023-02-12T13:31:32;101683.97;;;14.22;100.00
53671;BME280;39571;48.612;8.088;2023-02-12T13:34:06;101679.63;;;14.27;100.00
53671;BME280;39571;48.612;8.088;2023-02-12T13:36:36;101669.94;;;14.23;100.00
53671;BME280;39571;48.612;8.088;2023-02-12T13:41:37;101672.56;;;14.20;100.00
53671;BME280;39571;48.612;8.088;2023-02-12T13:44:19;101669.94;;;14.26;100.00
53671;BME280;39571;48.612;8.088;2023-02-12T13:49:43;101671.66;;;14.15;100.00
53671;BME280;39571;48.612;8.088;2023-02-12T13:55:22;101671.66;;;14.03;100.00
53671;BME280;39571;48.612;8.088;2023-02-12T14:03:22;101667.25;;;13.99;100.00
53671;BME280;39571;48.612;8.088;2023-02-12T14:08:39;101676.84;;;13.85;100.00
53671;BME280;39571;48.612;8.088;2023-02-12T14:11:10;101664.53;;;13.84;100.00
53671;BME280;39571;48.612;8.088;2023-02-12T14:13:51;101668.91;;;13.77;100.00
53671;BME280;39571;48.612;8.088;2023-02-12T14:16:39;101677.69;;;13.75;100.00
53671;BME280;39571;48.612;8.088;2023-02-12T14:19:41;101667.16;;;13.75;100.00
53671;BME280;39571;48.612;8.088;2023-02-12T14:24:57;101665.31;;;13.60;100.00
53671;BME280;39571;48.612;8.088;2023-02-12T14:27:44;101668.00;;;13.71;100.00
53671;BME280;39571;48.612;8.088;2023-02-12T14:35:39;101672.31;;;13.53;100.00
53671;BME280;39571;48.612;8.088;2023-02-12T14:43:01;101671.34;;;13.39;100.00
53671;BME280;39571;48.612;8.088;2023-02-12T14:45:36;101673.94;;;13.32;100.00
53671;BME280;39571;48.612;8.088;2023-02-12T14:48:03;101679.13;;;13.21;100.00
53671;BME280;39571;48.612;8.088;2023-02-12T14:50:36;101680.88;;;13.22;100.00
53671;BME280;39571;48.612;8.088;2023-02-12T14:53:06;101676.47;;;13.21;100.00
53671;BME280;39571;48.612;8.088;2023-02-12T14:55:33;101679.94;;;13.14;100.00
53671;BME280;39571;48.612;8.088;2023-02-12T14:58:04;101674.63;;;13.08;100.00
53671;BME280;39571;48.612;8.088;2023-02-12T15:00:39;101673.66;;;12.95;100.00
53671;BME280;39571;48.612;8.088;2023-02-12T15:05:41;101678.72;;;12.76;100.00
53671;BME280;39571;48.612;8.088;2023-02-12T15:08:39;101679.50;;;12.65;100.00
53671;BME280;39571;48.612;8.088;2023-02-12T15:11:42;101674.16;;;12.53;100.00
53671;BME280;39571;48.612;8.088;2023-02-12T15:14:26;101683.69;;;12.42;100.00
53671;BME280;39571;48.612;8.088;2023-02-12T15:16:58;101673.13;;;12.38;100.00
53671;BME280;39571;48.612;8.088;2023-02-12T15:19:38;101678.22;;;12.24;100.00
53671;BME280;39571;48.612;8.088;2023-02-12T15:22:29;101678.25;;;12.23;100.00
53671;BME280;39571;48.612;8.088;2023-02-12T15:27:46;101682.44;;;12.07;100.00
53671;BME280;39571;48.612;8.088;2023-02-12T15:30:17;101677.03;;;11.93;100.00
53671;BME280;39571;48.612;8.088;2023-02-12T15:32:43;101677.03;;;11.92;100.00
53671;BME280;39571;48.612;8.088;2023-02-12T15:35:27;101675.16;;;11.82;100.00
53671;BME280;39571;48.612;8.088;2023-02-12T15:37:54;101671.50;;;11.71;100.00
53671;BME280;39571;48.612;8.088;2023-02-12T15:40:21;101667.91;;;11.65;100.00
53671;BME280;39571;48.612;8.088;2023-02-12T15:43:16;101664.31;;;11.57;100.00
53671;BME280;39571;48.612;8.088;2023-02-12T15:45:49;101659.91;;;11.56;100.00
53671;BME280;39571;48.612;8.088;2023-02-12T15:48:18;101654.56;;;11.47;100.00
53671;BME280;39571;48.612;8.088;2023-02-12T15:50:55;101657.97;;;11.40;100.00
53671;BME280;39571;48.612;8.088;2023-02-12T15:53:25;101658.81;;;11.39;100.00
53671;BME280;39571;48.612;8.088;2023-02-12T15:55:51;101652.56;;;11.31;100.00
53671;BME280;39571;48.612;8.088;2023-02-12T15:58:50;101648.91;;;11.19;100.00
53671;BME280;39571;48.612;8.088;2023-02-12T16:01:27;101656.66;;;11.11;100.00
53671;BME280;39571;48.612;8.088;2023-02-12T16:03:58;101659.22;;;11.06;100.00
